createdAt,value
2022-10-14T00:02:00.644Z,33.65
2022-10-14T00:04:27.825Z,28.17
2022-10-14T00:06:54.921Z,29.83
2022-10-14T00:09:22.262Z,38.00
2022-10-14T00:11:49.569Z,35.58
2022-10-14T00:14:20.065Z,39.47
2022-10-14T00:16:53.585Z,36.88
2022-10-14T00:19:21.889Z,38.13
2022-10-14T00:21:50.768Z,31.90
2022-10-14T00:24:18.887Z,35.28
2022-10-14T00:26:46.372Z,44.83
2022-10-14T00:29:18.854Z,37.33
2022-10-14T00:31:46.631Z,34.30
2022-10-14T00:34:16.253Z,42.97
2022-10-14T00:36:44.650Z,34.22
2022-10-14T00:39:16.062Z,49.33
2022-10-14T00:41:45.819Z,47.10
2022-10-14T00:44:14.504Z,45.88
2022-10-14T00:46:49.700Z,46.08
2022-10-14T00:49:39.400Z,49.97
2022-10-14T00:52:13.742Z,40.50
2022-10-14T00:54:44.775Z,49.00
2022-10-14T00:57:15.322Z,38.97
2022-10-14T00:59:42.542Z,45.53
2022-10-14T01:02:09.997Z,43.10
2022-10-14T01:04:40.894Z,54.95
2022-10-14T01:07:35.823Z,47.75
2022-10-14T01:10:26.402Z,48.85
2022-10-14T01:13:15.418Z,48.95
2022-10-14T01:15:57.586Z,44.00
2022-10-14T01:18:43.375Z,45.40
2022-10-14T01:21:27.188Z,50.28
2022-10-14T01:24:05.353Z,44.50
2022-10-14T01:26:45.975Z,48.30
2022-10-14T01:29:19.248Z,47.08
2022-10-14T01:31:54.766Z,39.60
2022-10-14T01:34:28.747Z,43.23
2022-10-14T01:37:00.288Z,48.00
2022-10-14T01:39:33.648Z,50.78
2022-10-14T01:42:10.635Z,50.45
2022-10-14T01:44:43.541Z,48.28
2022-10-14T01:47:16.821Z,45.70
2022-10-14T01:49:50.370Z,53.27
2022-10-14T01:52:27.560Z,39.92
2022-10-14T01:54:58.522Z,45.55
2022-10-14T01:57:33.781Z,49.58
2022-10-14T02:00:02.736Z,42.90
2022-10-14T02:02:41.429Z,42.25
2022-10-14T02:05:29.120Z,50.92
2022-10-14T02:08:30.423Z,40.45
2022-10-14T02:11:03.748Z,44.15
2022-10-14T02:13:44.177Z,44.95
2022-10-14T02:16:49.062Z,45.80
2022-10-14T02:19:42.234Z,47.78
2022-10-14T02:22:28.021Z,36.88
2022-10-14T02:25:00.483Z,39.90
2022-10-14T02:27:29.171Z,44.53
2022-10-14T02:29:59.300Z,46.17
2022-10-14T02:32:28.518Z,44.35
2022-10-14T02:34:58.839Z,42.72
2022-10-14T02:37:29.517Z,49.20
2022-10-14T02:40:11.462Z,42.30
2022-10-14T02:42:38.610Z,43.25
2022-10-14T02:45:07.731Z,50.00
2022-10-14T02:47:34.858Z,46.58
2022-10-14T02:50:02.064Z,46.33
2022-10-14T02:52:30.398Z,44.90
2022-10-14T02:54:58.247Z,44.88
2022-10-14T02:57:32.715Z,50.55
2022-10-14T03:00:05.682Z,46.30
2022-10-14T03:02:34.161Z,42.50
2022-10-14T03:05:02.286Z,46.15
2022-10-14T03:07:30.580Z,45.75
2022-10-14T03:10:02.818Z,45.83
2022-10-14T03:12:33.754Z,42.20
2022-10-14T03:15:01.101Z,48.92
2022-10-14T03:17:29.775Z,44.95
2022-10-14T03:20:04.495Z,50.35
2022-10-14T03:22:36.768Z,42.08
2022-10-14T03:25:09.517Z,52.42
2022-10-14T03:27:42.862Z,45.05
2022-10-14T03:30:13.409Z,41.88
2022-10-14T03:32:53.766Z,40.53
2022-10-14T03:35:34.861Z,47.53
2022-10-14T03:38:03.946Z,39.97
2022-10-14T03:40:33.831Z,40.80
2022-10-14T03:43:01.963Z,43.67
2022-10-14T03:45:37.157Z,46.03
2022-10-14T03:48:06.779Z,49.70
2022-10-14T03:50:38.905Z,48.72
2022-10-14T03:53:07.583Z,49.65
2022-10-14T03:55:37.010Z,54.33
2022-10-14T03:58:07.288Z,46.92
2022-10-14T04:00:38.438Z,58.65
2022-10-14T04:03:23.034Z,53.95
2022-10-14T04:05:50.168Z,48.30
2022-10-14T04:08:21.813Z,40.53
2022-10-14T04:10:55.868Z,70.47
2022-10-14T04:13:24.723Z,46.40
2022-10-14T04:15:51.978Z,54.35
2022-10-14T04:18:23.971Z,59.95
2022-10-14T04:20:53.817Z,54.15
2022-10-14T04:23:26.169Z,52.20
2022-10-14T04:25:57.515Z,55.13
2022-10-14T04:28:25.355Z,56.45
2022-10-14T04:31:09.375Z,55.50
2022-10-14T04:33:48.961Z,61.15
2022-10-14T04:36:24.177Z,50.83
2022-10-14T04:38:51.353Z,58.05
2022-10-14T04:41:19.495Z,54.67
2022-10-14T04:43:49.101Z,56.75
2022-10-14T04:46:34.904Z,66.32
2022-10-14T04:49:02.388Z,58.35
2022-10-14T04:51:34.458Z,53.67
2022-10-14T04:54:16.098Z,67.85
2022-10-14T04:56:53.027Z,61.92
2022-10-14T04:59:20.179Z,91.10
2022-10-14T05:01:59.284Z,81.07
2022-10-14T05:04:35.615Z,67.30
2022-10-14T05:07:03.164Z,90.55
2022-10-14T05:09:39.130Z,61.33
2022-10-14T05:12:17.825Z,65.15
2022-10-14T05:14:50.512Z,56.38
2022-10-14T05:17:24.694Z,56.38
2022-10-14T05:19:52.047Z,57.28
2022-10-14T05:22:22.031Z,71.38
2022-10-14T05:25:00.428Z,64.85
2022-10-14T05:27:30.600Z,74.88
2022-10-14T05:29:59.535Z,81.05
2022-10-14T05:32:29.533Z,72.40
2022-10-14T05:35:03.060Z,101.07
2022-10-14T05:37:37.630Z,70.63
2022-10-14T05:40:05.840Z,79.28
2022-10-14T05:42:35.937Z,75.15
2022-10-14T05:45:03.811Z,75.35
2022-10-14T05:47:36.321Z,70.13
2022-10-14T05:50:13.275Z,72.43
2022-10-14T05:52:43.483Z,76.50
2022-10-14T05:55:27.768Z,62.75
2022-10-14T05:57:58.692Z,95.90
2022-10-14T06:00:31.734Z,78.78
2022-10-14T06:03:04.452Z,84.28
2022-10-14T06:05:35.350Z,75.80
2022-10-14T06:08:03.300Z,77.53
2022-10-14T06:10:30.606Z,71.25
2022-10-14T06:12:57.704Z,85.40
2022-10-14T06:15:26.385Z,88.65
2022-10-14T06:17:53.477Z,72.28
2022-10-14T06:20:20.602Z,80.75
2022-10-14T06:22:47.682Z,72.90
2022-10-14T06:25:14.860Z,83.82
2022-10-14T06:27:42.513Z,74.50
2022-10-14T06:30:10.465Z,82.20
2022-10-14T06:32:40.274Z,88.38
2022-10-14T06:35:07.764Z,96.53
2022-10-14T06:37:37.744Z,76.78
2022-10-14T06:40:05.404Z,84.15
2022-10-14T06:42:35.048Z,82.55
2022-10-14T06:45:02.222Z,88.25
2022-10-14T06:47:30.950Z,73.10
2022-10-14T06:49:58.320Z,79.03
2022-10-14T06:52:25.759Z,95.00
2022-10-14T06:54:52.885Z,89.25
2022-10-14T06:57:19.980Z,72.55
2022-10-14T06:59:47.230Z,111.18
2022-10-14T07:02:14.374Z,87.93
2022-10-14T07:04:41.892Z,104.65
2022-10-14T07:07:09.673Z,89.60
2022-10-14T07:09:36.908Z,84.20
2022-10-14T07:12:04.430Z,88.75
2022-10-14T07:14:31.591Z,76.68
2022-10-14T07:16:58.759Z,93.93
2022-10-14T07:19:25.864Z,106.80
2022-10-14T07:21:53.001Z,100.82
2022-10-14T07:24:20.261Z,77.53
2022-10-14T07:26:47.380Z,103.18
2022-10-14T07:29:14.525Z,94.68
2022-10-14T07:31:42.035Z,85.50
2022-10-14T07:34:09.764Z,81.75
2022-10-14T07:36:36.913Z,94.00
2022-10-14T07:39:05.907Z,94.57
2022-10-14T07:41:33.585Z,110.57
2022-10-14T07:44:05.543Z,100.13
2022-10-14T07:46:35.407Z,114.18
2022-10-14T07:49:11.605Z,126.95
2022-10-14T07:51:39.835Z,103.35
2022-10-14T07:54:09.976Z,76.35
2022-10-14T07:56:42.863Z,90.63
2022-10-14T07:59:10.273Z,95.45
2022-10-14T08:01:37.895Z,92.38
2022-10-14T08:04:05.678Z,97.93
2022-10-14T08:06:33.034Z,94.78
2022-10-14T08:09:00.141Z,90.97
2022-10-14T08:11:28.505Z,81.45
2022-10-14T08:13:55.785Z,83.20
2022-10-14T08:16:28.763Z,82.30
2022-10-14T08:18:57.876Z,89.38
2022-10-14T08:21:26.006Z,84.38
2022-10-14T08:23:54.870Z,76.47
2022-10-14T08:26:30.766Z,85.15
2022-10-14T08:28:59.592Z,92.10
2022-10-14T08:31:27.244Z,91.68
2022-10-14T08:33:54.356Z,69.07
2022-10-14T08:36:21.948Z,87.82
2022-10-14T08:38:51.524Z,70.88
2022-10-14T08:41:36.359Z,83.68
2022-10-14T08:44:25.325Z,68.75
2022-10-14T08:46:56.400Z,64.57
2022-10-14T08:49:35.538Z,75.97
2022-10-14T08:52:09.332Z,72.47
2022-10-14T08:54:40.569Z,67.25
2022-10-14T08:57:25.627Z,66.88
2022-10-14T08:59:53.743Z,76.22
2022-10-14T09:02:50.071Z,61.55
2022-10-14T09:05:21.876Z,60.28
2022-10-14T09:10:31.285Z,55.53
2022-10-14T09:13:30.917Z,69.07
2022-10-14T09:16:17.530Z,63.97
2022-10-14T09:18:50.872Z,67.45
2022-10-14T09:21:33.898Z,61.22
2022-10-14T09:24:18.716Z,65.18
2022-10-14T09:26:49.364Z,77.85
2022-10-14T09:29:27.177Z,63.92
2022-10-14T09:32:10.915Z,58.72
2022-10-14T09:34:41.816Z,56.97
2022-10-14T09:37:26.568Z,55.80
2022-10-14T09:39:57.254Z,55.20
2022-10-14T09:42:30.399Z,62.58
2022-10-14T09:47:55.317Z,59.95
2022-10-14T09:50:41.295Z,59.70
2022-10-14T09:53:16.777Z,56.65
2022-10-14T09:55:49.728Z,51.33
2022-10-14T09:58:22.578Z,53.65
2022-10-14T10:00:57.155Z,48.47
2022-10-14T10:03:33.013Z,52.50
2022-10-14T10:06:04.405Z,48.00
2022-10-14T10:08:32.997Z,47.47
2022-10-14T10:11:13.376Z,52.85
2022-10-14T10:13:44.909Z,47.38
2022-10-14T10:16:25.456Z,47.47
2022-10-14T10:18:55.351Z,40.33
2022-10-14T10:21:27.057Z,42.70
2022-10-14T10:23:57.993Z,39.97
2022-10-14T10:26:33.730Z,39.78
2022-10-14T10:29:03.961Z,43.70
2022-10-14T10:32:01.860Z,41.95
2022-10-14T10:34:32.217Z,37.22
2022-10-14T10:37:22.584Z,39.85
2022-10-14T10:40:20.352Z,36.42
2022-10-14T10:43:24.004Z,36.88
2022-10-14T10:46:18.147Z,39.50
2022-10-14T10:48:50.219Z,34.63
2022-10-14T10:51:31.019Z,39.47
2022-10-14T10:54:35.400Z,39.13
2022-10-14T10:57:24.966Z,37.13
2022-10-14T11:00:00.208Z,37.72
2022-10-14T11:02:48.791Z,38.33
2022-10-14T11:05:34.797Z,36.72
2022-10-14T11:08:28.150Z,45.35
2022-10-14T11:11:46.521Z,33.80
2022-10-14T11:14:33.077Z,35.95
2022-10-14T11:17:26.682Z,37.83
2022-10-14T11:20:13.026Z,41.92
2022-10-14T11:23:06.593Z,38.28
2022-10-14T11:25:44.481Z,40.30
2022-10-14T11:28:36.413Z,40.38
2022-10-14T11:31:34.038Z,38.53
2022-10-14T11:34:43.850Z,37.33
2022-10-14T11:37:39.182Z,41.40
2022-10-14T11:40:25.255Z,40.72
2022-10-14T11:43:24.438Z,38.22
2022-10-14T11:45:58.343Z,39.70
2022-10-14T11:48:51.203Z,41.28
2022-10-14T11:51:34.810Z,36.03
2022-10-14T11:54:12.617Z,39.95
2022-10-14T11:56:45.776Z,35.78
2022-10-14T11:59:37.162Z,36.93
2022-10-14T12:02:21.546Z,40.88
2022-10-14T12:05:10.998Z,38.78
2022-10-14T12:07:45.404Z,38.55
2022-10-14T12:10:19.739Z,39.65
2022-10-14T12:12:47.156Z,38.35
2022-10-14T12:15:20.113Z,41.95
2022-10-14T12:17:57.458Z,44.42
2022-10-14T12:20:36.823Z,38.58
2022-10-14T12:23:07.797Z,42.85
2022-10-14T12:25:45.847Z,41.05
2022-10-14T12:28:18.144Z,40.53
2022-10-14T12:30:47.027Z,35.75
2022-10-14T12:33:22.578Z,36.30
2022-10-14T12:35:53.311Z,36.22
2022-10-14T12:38:22.008Z,34.58
2022-10-14T12:40:51.160Z,28.15
2022-10-14T12:43:23.614Z,34.03
2022-10-14T12:46:04.200Z,31.88
2022-10-14T12:48:36.231Z,32.97
2022-10-14T12:51:16.023Z,32.65
2022-10-14T12:53:54.669Z,33.78
2022-10-14T12:56:30.524Z,26.38
2022-10-14T12:59:01.328Z,26.45
2022-10-14T13:01:32.321Z,27.02
2022-10-14T13:04:07.473Z,24.23
2022-10-14T13:06:44.300Z,25.02
2022-10-14T13:09:11.336Z,28.85
2022-10-14T13:11:39.574Z,22.30
2022-10-14T13:14:30.478Z,22.27
2022-10-14T13:17:00.260Z,23.30
2022-10-14T13:19:33.513Z,24.65
2022-10-14T13:22:02.393Z,26.73
2022-10-14T13:24:39.724Z,22.98
2022-10-14T13:27:33.176Z,25.02
2022-10-14T13:30:12.224Z,23.80
2022-10-14T13:32:46.096Z,23.95
2022-10-14T13:35:38.405Z,25.23
2022-10-14T13:38:12.692Z,24.83
2022-10-14T13:40:44.836Z,23.77
2022-10-14T13:43:20.835Z,23.48
2022-10-14T13:45:55.352Z,23.02
2022-10-14T13:48:32.130Z,23.77
2022-10-14T13:51:36.498Z,27.05
2022-10-14T13:54:20.237Z,22.23
2022-10-14T13:57:53.554Z,22.60
2022-10-14T14:00:59.065Z,21.63
2022-10-14T14:03:34.089Z,23.52
2022-10-14T14:06:08.869Z,23.10
2022-10-14T14:08:50.037Z,24.02
2022-10-14T14:11:20.943Z,22.00
2022-10-14T14:14:20.675Z,22.50
2022-10-14T14:17:01.339Z,21.42
2022-10-14T14:19:37.484Z,20.85
2022-10-14T14:22:16.916Z,19.25
2022-10-14T14:24:45.805Z,19.27
2022-10-14T14:27:19.029Z,22.25
2022-10-14T14:29:49.231Z,19.88
2022-10-14T14:32:20.233Z,18.02
2022-10-14T14:34:50.110Z,20.08
2022-10-14T14:37:54.634Z,18.70
2022-10-14T14:40:24.387Z,19.00
2022-10-14T14:43:00.560Z,18.33
2022-10-14T14:45:30.835Z,19.80
2022-10-14T14:48:02.685Z,17.85
2022-10-14T14:50:36.775Z,16.92
2022-10-14T14:56:00.556Z,17.63
2022-10-14T14:58:29.821Z,16.88
2022-10-14T15:00:57.512Z,17.05
2022-10-14T15:03:27.575Z,14.50
2022-10-14T15:06:05.370Z,17.67
2022-10-14T15:08:37.823Z,15.02
2022-10-14T15:11:05.312Z,15.80
2022-10-14T15:13:44.982Z,14.25
2022-10-14T15:16:12.373Z,19.17
2022-10-14T15:18:42.583Z,14.82
2022-10-14T15:21:12.639Z,14.77
2022-10-14T15:23:51.604Z,16.83
2022-10-14T15:26:35.001Z,14.43
2022-10-14T15:29:03.741Z,13.10
2022-10-14T15:31:30.897Z,14.27
2022-10-14T15:33:58.013Z,11.95
2022-10-14T15:36:27.075Z,12.73
2022-10-14T15:39:04.599Z,15.45
2022-10-14T15:41:31.645Z,11.55
2022-10-14T15:43:58.668Z,14.95
2022-10-14T15:46:44.422Z,13.15
2022-10-14T15:49:16.537Z,13.43
2022-10-14T15:51:43.574Z,13.02
2022-10-14T15:54:12.572Z,12.77
2022-10-14T15:56:39.599Z,13.85
2022-10-14T15:59:06.654Z,14.18
2022-10-14T16:01:38.299Z,12.15
2022-10-14T16:04:19.205Z,15.05
2022-10-14T16:06:47.878Z,14.30
2022-10-14T16:09:15.336Z,15.60
2022-10-14T16:11:57.239Z,15.18
2022-10-14T16:14:27.883Z,19.83
2022-10-14T16:16:55.481Z,14.60
2022-10-14T16:19:22.560Z,14.82
2022-10-14T16:21:50.316Z,21.65
2022-10-14T16:24:20.475Z,13.95
2022-10-14T16:26:51.326Z,13.68
2022-10-14T16:29:24.772Z,12.02
2022-10-14T16:31:52.388Z,15.95
2022-10-14T16:34:21.545Z,15.93
2022-10-14T16:36:49.798Z,15.90
2022-10-14T16:39:19.363Z,14.07
2022-10-14T16:41:46.918Z,15.43
2022-10-14T16:44:24.734Z,15.70
2022-10-14T16:47:15.641Z,17.00
2022-10-14T16:49:49.178Z,16.30
2022-10-14T16:52:16.754Z,13.93
2022-10-14T16:54:44.207Z,15.93
2022-10-14T16:57:12.117Z,13.57
2022-10-14T16:59:39.439Z,11.93
2022-10-14T17:02:10.590Z,15.43
2022-10-14T17:04:38.125Z,11.70
2022-10-14T17:07:07.476Z,17.90
2022-10-14T17:09:40.321Z,13.20
2022-10-14T17:12:12.971Z,13.52
2022-10-14T17:14:41.785Z,12.98
2022-10-14T17:17:10.334Z,15.25
2022-10-14T17:19:38.417Z,13.77
2022-10-14T17:22:05.587Z,14.07
2022-10-14T17:24:32.641Z,12.85
2022-10-14T17:27:02.598Z,12.85
2022-10-14T17:29:29.667Z,15.43
2022-10-14T17:31:57.230Z,13.68
2022-10-14T17:34:24.298Z,13.13
2022-10-14T17:36:53.275Z,15.45
2022-10-14T17:39:27.475Z,14.43
2022-10-14T17:41:57.632Z,16.25
2022-10-14T17:44:24.995Z,13.30
2022-10-14T17:46:53.326Z,16.75
2022-10-14T17:49:21.225Z,11.00
2022-10-14T17:51:48.682Z,13.40
2022-10-14T17:54:15.780Z,13.45
2022-10-14T17:56:43.217Z,15.73
2022-10-14T17:59:12.023Z,13.35
2022-10-14T18:04:26.372Z,14.57
2022-10-14T18:06:54.353Z,14.55
2022-10-14T18:09:21.541Z,13.32
2022-10-14T18:14:40.230Z,12.20
2022-10-14T18:17:07.695Z,14.65
2022-10-14T18:19:37.309Z,12.38
2022-10-14T18:22:06.595Z,14.95
2022-10-14T18:24:38.048Z,14.90
2022-10-14T18:27:05.455Z,14.95
2022-10-14T18:29:32.547Z,14.20
2022-10-14T18:31:59.693Z,15.20
2022-10-14T18:34:27.591Z,14.05
2022-10-14T18:36:54.841Z,14.18
2022-10-14T18:39:22.074Z,14.38
2022-10-14T18:41:49.133Z,12.65
2022-10-14T18:44:16.846Z,13.15
2022-10-14T18:46:43.960Z,12.50
2022-10-14T18:49:11.607Z,14.43
2022-10-14T18:51:40.931Z,14.73
2022-10-14T18:54:12.348Z,17.30
2022-10-14T18:56:39.902Z,14.32
2022-10-14T18:59:11.793Z,15.13
2022-10-14T19:01:40.137Z,13.85
2022-10-14T19:04:09.613Z,16.77
2022-10-14T19:06:36.877Z,13.38
2022-10-14T19:09:04.279Z,11.10
2022-10-14T19:11:33.522Z,15.07
2022-10-14T19:14:05.292Z,13.75
2022-10-14T19:16:36.055Z,13.50
2022-10-14T19:19:08.414Z,14.65
2022-10-14T19:21:38.952Z,12.77
2022-10-14T19:24:08.096Z,11.07
2022-10-14T19:26:38.366Z,11.90
2022-10-14T19:29:10.510Z,10.88
2022-10-14T19:31:39.707Z,11.23
2022-10-14T19:34:10.104Z,12.95
2022-10-14T19:36:44.812Z,9.90
2022-10-14T19:39:14.513Z,9.93
2022-10-14T19:41:46.281Z,11.02
2022-10-14T19:44:15.097Z,10.77
2022-10-14T19:46:48.207Z,8.93
2022-10-14T19:49:15.775Z,11.05
2022-10-14T19:51:43.502Z,7.93
2022-10-14T19:54:12.366Z,8.55
2022-10-14T19:56:39.629Z,9.25
2022-10-14T19:59:06.750Z,10.38
2022-10-14T20:01:33.940Z,11.50
2022-10-14T20:04:02.749Z,8.93
2022-10-14T20:06:33.766Z,11.32
2022-10-14T20:09:01.435Z,8.82
2022-10-14T20:11:28.998Z,9.15
2022-10-14T20:13:56.486Z,7.97
2022-10-14T20:16:23.608Z,11.20
2022-10-14T20:18:50.679Z,8.65
2022-10-14T20:21:17.918Z,10.77
2022-10-14T20:23:45.256Z,10.23
2022-10-14T20:26:16.084Z,10.68
2022-10-14T20:28:43.628Z,8.68
2022-10-14T20:31:14.208Z,9.07
2022-10-14T20:33:41.838Z,10.20
2022-10-14T20:36:15.750Z,10.57
2022-10-14T20:41:14.856Z,13.13
2022-10-14T20:46:12.407Z,8.15
2022-10-14T20:48:41.732Z,9.43
2022-10-14T20:51:17.848Z,8.88
2022-10-14T20:53:44.930Z,11.10
2022-10-14T20:56:13.273Z,8.45
2022-10-14T20:58:41.220Z,9.15
2022-10-14T21:01:09.430Z,8.52
2022-10-14T21:03:36.605Z,10.27
2022-10-14T21:06:06.081Z,10.07
2022-10-14T21:08:34.609Z,9.25
2022-10-14T21:11:07.042Z,7.70
2022-10-14T21:13:36.404Z,7.88
2022-10-14T21:16:31.980Z,8.50
2022-10-14T21:19:02.816Z,11.35
2022-10-14T21:21:37.760Z,9.75
2022-10-14T21:24:05.381Z,9.52
2022-10-14T21:26:35.240Z,9.70
2022-10-14T21:29:03.054Z,7.90
2022-10-14T21:31:30.855Z,11.02
2022-10-14T21:34:05.041Z,6.50
2022-10-14T21:36:34.327Z,10.00
2022-10-14T21:39:06.231Z,8.73
2022-10-14T21:41:34.639Z,9.88
2022-10-14T21:44:01.948Z,15.13
2022-10-14T21:46:29.009Z,11.77
2022-10-14T21:48:57.265Z,7.25
2022-10-14T21:51:26.614Z,12.52
2022-10-14T21:53:53.817Z,8.70
2022-10-14T21:56:23.973Z,9.00
2022-10-14T21:58:51.605Z,9.57
2022-10-14T22:01:28.483Z,7.55
2022-10-14T22:04:04.404Z,9.40
2022-10-14T22:06:33.704Z,9.68
2022-10-14T22:09:02.978Z,8.23
2022-10-14T22:11:31.171Z,10.63
2022-10-14T22:13:59.989Z,8.48
2022-10-14T22:16:29.182Z,9.50
2022-10-14T22:18:59.275Z,7.65
2022-10-14T22:21:30.380Z,8.65
2022-10-14T22:24:01.453Z,8.32
2022-10-14T22:26:29.634Z,10.50
2022-10-14T22:29:16.321Z,12.10
2022-10-14T22:31:44.135Z,10.77
2022-10-14T22:34:16.306Z,10.02
2022-10-14T22:36:44.291Z,11.82
2022-10-14T22:39:15.209Z,8.75
2022-10-14T22:41:42.446Z,11.48
2022-10-14T22:44:14.409Z,9.27
2022-10-14T22:46:41.724Z,15.65
2022-10-14T22:49:11.590Z,10.80
2022-10-14T22:51:40.638Z,11.13
2022-10-14T22:54:08.701Z,11.43
2022-10-14T22:56:36.301Z,14.00
2022-10-14T22:59:09.568Z,11.05
2022-10-14T23:01:37.744Z,17.25
2022-10-14T23:04:05.135Z,15.98
2022-10-14T23:06:32.436Z,12.98
2022-10-14T23:09:02.794Z,17.08
2022-10-14T23:11:31.470Z,17.90
2022-10-14T23:14:01.442Z,12.45
2022-10-14T23:16:31.785Z,15.05
2022-10-14T23:18:59.212Z,15.02
2022-10-14T23:21:37.499Z,17.33
2022-10-14T23:24:07.803Z,15.88
2022-10-14T23:26:36.059Z,12.75
2022-10-14T23:29:07.430Z,14.55
2022-10-14T23:31:36.667Z,14.23
2022-10-14T23:34:07.719Z,13.90
2022-10-14T23:36:34.810Z,15.13
2022-10-14T23:39:01.990Z,15.85
2022-10-14T23:41:29.053Z,17.90
2022-10-14T23:43:56.819Z,16.52
2022-10-14T23:46:24.602Z,17.48
2022-10-14T23:49:07.025Z,14.82
2022-10-14T23:51:39.820Z,23.15
2022-10-14T23:54:06.882Z,23.23
2022-10-14T23:56:33.936Z,19.08
2022-10-14T23:59:00.965Z,19.23
